Rabbit Hole, Nevada
Current Conditions -  °F | °C
As of 12:53 AM on Saturday 25 Oct 2014 (Local Time) from KLOL Reporting Station
Clear Clear  
Wind Chill: 37°   Ceiling: Unl
Heat Index: 40°   Visibility: 10mi
Dew Point: 21°   Wind: 5mph
Humidity: 47%   Direction: 70°ENE
Pressure: 29.95"   Gusts: NA
Location:  40.3545°N, 118.628°W
Report Text: KLOL 250753Z AUTO 07004KT 10SM CLR 04/M06 A2995 RMK AO2 SLP128 T00441061 402561022
Loading
Personal Weather Stations






























Interactive Weather Map
Tropical Storm Tracking
New forecast layout! Learn more

10-Day Weather Forecast

Advertisements
Track Severe Weather on mobile